Time;durP1;ratioP1;P1;durP2;ratioP2;P2;SDS_P1;SDS_P2;PMS_P1;PMS_P2;Temp;Humidity;BMP_temperature;BMP_pressure;BME280_temperature;BME280_humidity;BME280_pressure;Samples;Min_cycle;Max_cycle;Signal;HPM_P1;HPM_P2
2022/10/15 00:01:14;;;;;;;20.45;9.18;;;;;;;9.86;86.45;99485.34;1630734;88;21024;-79
2022/10/15 00:03:44;;;;;;;17.00;8.63;;;;;;;9.83;85.61;99489.72;1637481;86;21056;-80
2022/10/15 00:06:17;;;;;;;19.15;8.45;;;;;;;9.83;86.58;99491.02;1650086;85;21053;-79
2022/10/15 00:08:45;;;;;;;19.10;8.80;;;;;;;9.84;86.67;99484.96;1631194;87;21060;-78
2022/10/15 00:11:17;;;;;;;20.27;9.78;;;;;;;9.84;86.41;99487.11;1622039;87;21055;-79
2022/10/15 00:13:45;;;;;;;20.92;10.18;;;;;;;9.85;86.19;99489.29;1641118;87;21024;-79
2022/10/15 00:16:17;;;;;;;26.80;10.00;;;;;;;9.85;86.23;99490.14;1637217;87;21063;-79
2022/10/15 00:18:45;;;;;;;20.88;9.78;;;;;;;9.85;86.17;99490.14;1638344;87;21032;-80
2022/10/15 00:21:16;;;;;;;18.27;9.38;;;;;;;9.85;86.00;99487.99;1636308;87;21551;-78
2022/10/15 00:23:44;;;;;;;23.85;9.88;;;;;;;9.83;85.75;99490.60;1636031;87;21063;-78
2022/10/15 00:26:17;;;;;;;23.00;9.15;;;;;;;9.78;85.32;99482.02;1639078;87;21560;-78
2022/10/15 00:28:47;;;;;;;25.08;9.05;;;;;;;9.74;85.60;99482.50;1634649;87;21103;-79
2022/10/15 00:31:18;;;;;;;18.10;8.18;;;;;;;9.71;85.44;99489.50;1622686;87;21051;-80
2022/10/15 00:33:53;;;;;;;19.10;8.10;;;;;;;9.64;86.08;99485.27;1634954;87;21036;-79
2022/10/15 00:36:27;;;;;;;19.77;8.25;;;;;;;9.60;85.92;99483.60;1623088;87;21060;-78
2022/10/15 00:38:56;;;;;;;20.62;8.98;;;;;;;9.62;86.52;99484.44;1633440;87;21080;-79
2022/10/15 00:41:44;;;;;;;20.30;8.55;;;;;;;9.61;86.40;99474.50;1621238;87;21043;-77
2022/10/15 00:44:32;;;;;;;16.32;8.08;;;;;;;9.56;85.59;99474.55;1635392;87;21583;-79
2022/10/15 00:47:26;;;;;;;17.40;8.45;;;;;;;9.45;85.55;99476.88;1640915;87;20981;-79
2022/10/15 00:50:02;;;;;;;17.70;8.60;;;;;;;9.38;85.27;99477.42;1629436;87;21039;-79
2022/10/15 00:52:47;;;;;;;18.10;8.15;;;;;;;9.30;85.32;99471.48;1622459;87;22324;-79
2022/10/15 00:55:23;;;;;;;19.42;8.45;;;;;;;9.22;85.72;99470.29;1630480;88;21064;-81
2022/10/15 00:57:52;;;;;;;20.00;7.97;;;;;;;9.12;84.88;99474.73;1618286;88;21068;-80
2022/10/15 01:00:20;;;;;;;20.27;9.25;;;;;;;9.05;86.66;99470.94;1617369;88;21079;-78
2022/10/15 01:02:47;;;;;;;19.92;8.73;;;;;;;9.05;86.81;99474.83;1630771;88;21052;-80
2022/10/15 01:05:16;;;;;;;17.75;8.70;;;;;;;9.05;86.67;99473.53;1623116;88;21568;-79
2022/10/15 01:07:44;;;;;;;19.05;9.00;;;;;;;8.99;86.97;99476.20;1620117;87;21028;-78
2022/10/15 01:10:13;;;;;;;16.87;8.40;;;;;;;8.95;87.10;99468.48;1618633;88;21023;-79
2022/10/15 01:13:12;;;;;;;19.35;8.10;;;;;;;8.98;87.18;99471.92;1610003;88;21056;-80
2022/10/15 01:16:02;;;;;;;16.95;7.87;;;;;;;9.00;87.26;99471.02;1621775;86;21068;-79
2022/10/15 01:18:44;;;;;;;19.80;8.45;;;;;;;9.06;87.11;99466.19;1632079;87;21016;-79
2022/10/15 01:21:26;;;;;;;23.73;8.63;;;;;;;9.02;86.08;99474.44;1646115;85;21514;-78
2022/10/15 01:24:21;;;;;;;18.27;7.67;;;;;;;9.00;86.61;99467.56;1640984;87;21094;-79
2022/10/15 01:27:07;;;;;;;20.92;8.43;;;;;;;8.95;86.11;99467.60;1633049;87;21056;-79
2022/10/15 01:30:13;;;;;;;17.42;9.15;;;;;;;8.91;86.00;99472.41;1637333;87;21622;-79
2022/10/15 01:33:02;;;;;;;18.00;7.67;;;;;;;8.86;86.29;99467.29;1638385;87;21068;-79
2022/10/15 01:36:06;;;;;;;18.00;8.25;;;;;;;8.89;86.39;99468.98;1639889;87;21366;-79
2022/10/15 01:38:56;;;;;;;14.20;7.55;;;;;;;8.82;85.55;99474.69;1602989;87;21051;-78
2022/10/15 01:41:44;;;;;;;17.80;8.18;;;;;;;8.73;85.27;99473.08;1631943;87;21123;-80
2022/10/15 01:44:20;;;;;;;16.65;9.05;;;;;;;8.66;85.96;99474.00;1653788;85;21087;-80
2022/10/15 01:47:06;;;;;;;21.55;8.73;;;;;;;8.55;85.93;99475.84;1540420;93;21125;-79
2022/10/15 01:49:41;;;;;;;19.02;8.53;;;;;;;8.47;86.34;99477.22;1637825;87;21076;-79
2022/10/15 01:52:14;;;;;;;14.43;6.85;;;;;;;8.40;87.25;99474.26;1637588;87;21103;-79
2022/10/15 01:54:43;;;;;;;16.73;6.60;;;;;;;8.36;87.56;99475.16;1638481;87;21080;-78
2022/10/15 01:57:13;;;;;;;14.10;7.65;;;;;;;8.29;87.25;99474.34;1631887;87;21063;-79
2022/10/15 01:59:43;;;;;;;18.25;7.20;;;;;;;8.25;87.49;99475.70;1637324;87;21142;-77
2022/10/15 02:02:11;;;;;;;13.72;7.03;;;;;;;8.22;87.67;99468.82;1655024;86;21018;-79
2022/10/15 02:04:40;;;;;;;14.50;7.12;;;;;;;8.21;87.89;99479.19;1597937;88;21091;-79
2022/10/15 02:07:47;;;;;;;15.60;8.20;;;;;;;8.20;88.07;99475.75;1627667;87;21012;-78
2022/10/15 02:10:55;;;;;;;18.73;7.33;;;;;;;8.15;88.05;99479.66;1614478;88;21051;-80
2022/10/15 02:13:33;;;;;;;17.32;7.25;;;;;;;8.14;88.41;99474.07;1636784;87;20973;-79
2022/10/15 02:16:45;;;;;;;18.37;7.37;;;;;;;8.19;89.45;99481.78;1626526;87;21087;-78
2022/10/15 02:19:18;;;;;;;15.68;6.60;;;;;;;8.19;88.55;99477.05;1640290;87;20988;-79
2022/10/15 02:21:53;;;;;;;14.83;7.08;;;;;;;8.17;88.64;99480.50;1641494;87;21048;-78
2022/10/15 02:24:34;;;;;;;14.65;7.55;;;;;;;8.15;88.41;99481.39;1634212;87;21020;-78
2022/10/15 02:27:06;;;;;;;17.42;7.47;;;;;;;8.13;88.14;99481.40;1640895;87;21050;-78
2022/10/15 02:29:37;;;;;;;14.95;7.58;;;;;;;8.16;88.89;99483.13;1630571;87;21020;-78
2022/10/15 02:32:06;;;;;;;17.98;7.37;;;;;;;8.18;88.82;99489.16;1640507;87;21068;-78
2022/10/15 02:34:35;;;;;;;13.93;7.12;;;;;;;8.15;88.51;99480.95;1632877;87;21486;-77
2022/10/15 02:37:06;;;;;;;15.50;7.58;;;;;;;8.14;88.17;99483.58;1641000;87;21567;-78
2022/10/15 02:39:34;;;;;;;13.45;6.92;;;;;;;8.10;87.79;99487.07;1633241;87;21067;-79
2022/10/15 02:42:02;;;;;;;16.37;7.85;;;;;;;8.06;88.23;99483.64;1640527;87;21587;-79
2022/10/15 02:44:32;;;;;;;16.15;7.67;;;;;;;8.11;88.86;99478.41;1633642;87;21048;-78
2022/10/15 02:46:59;;;;;;;16.17;7.40;;;;;;;8.14;88.48;99477.95;1640866;87;21595;-78
2022/10/15 02:49:27;;;;;;;18.10;7.62;;;;;;;8.17;88.40;99486.97;1625445;87;21086;-78
2022/10/15 02:51:55;;;;;;;13.50;6.67;;;;;;;8.16;87.97;99491.75;1622430;87;21040;-78
2022/10/15 02:54:23;;;;;;;12.15;6.62;;;;;;;8.19;87.60;99491.30;1630641;87;21643;-78
2022/10/15 02:56:50;;;;;;;12.05;5.67;;;;;;;8.16;87.12;99485.72;1634827;87;21051;-78
2022/10/15 02:59:19;;;;;;;11.65;6.95;;;;;;;8.15;86.89;99488.72;1662672;85;21026;-79
2022/10/15 03:01:47;;;;;;;11.63;7.00;;;;;;;8.06;86.47;99490.12;1634954;87;21055;-79
2022/10/15 03:04:15;;;;;;;15.10;6.40;;;;;;;8.00;86.70;99494.47;1636673;87;20985;-76
2022/10/15 03:06:43;;;;;;;14.60;6.50;;;;;;;7.95;86.96;99494.07;1624089;87;21060;-77
2022/10/15 03:09:11;;;;;;;11.50;6.22;;;;;;;7.99;87.10;99491.03;1625922;87;21556;-79
2022/10/15 03:11:39;;;;;;;16.30;7.83;;;;;;;8.00;87.48;99497.94;1625420;87;21092;-78
2022/10/15 03:14:06;;;;;;;16.00;7.00;;;;;;;7.99;88.06;99497.94;1626306;87;21055;-79
2022/10/15 03:16:35;;;;;;;14.75;6.60;;;;;;;7.92;88.18;99488.94;1626354;87;21041;-79
2022/10/15 03:19:02;;;;;;;18.32;7.30;;;;;;;7.93;88.11;99498.84;1638859;86;22117;-78
2022/10/15 03:21:31;;;;;;;15.45;7.22;;;;;;;7.94;88.24;99492.37;1638391;87;21052;-79
2022/10/15 03:24:00;;;;;;;14.03;7.00;;;;;;;7.99;89.42;99492.32;1637956;87;21072;-79
2022/10/15 03:26:28;;;;;;;18.50;7.15;;;;;;;8.02;89.32;99496.20;1632863;87;21496;-78
2022/10/15 03:28:56;;;;;;;15.10;6.47;;;;;;;8.06;88.87;99501.77;1632951;87;21005;-78
2022/10/15 03:31:28;;;;;;;12.80;5.53;;;;;;;7.99;87.87;99503.97;1637309;87;20992;-78
2022/10/15 03:33:57;;;;;;;15.48;6.17;;;;;;;7.95;88.51;99504.87;1638816;87;21702;-79
2022/10/15 03:36:26;;;;;;;11.65;6.08;;;;;;;7.95;88.97;99505.72;1633788;87;21070;-79
2022/10/15 03:38:54;;;;;;;11.63;5.62;;;;;;;7.95;89.40;99499.25;1637462;87;21076;-79
2022/10/15 03:41:24;;;;;;;13.50;6.45;;;;;;;7.89;89.10;99503.19;1645144;87;21071;-78
2022/10/15 03:43:52;;;;;;;14.93;6.65;;;;;;;7.93;90.53;99503.58;1634144;87;20976;-77
2022/10/15 03:46:19;;;;;;;11.68;5.97;;;;;;;7.97;90.02;99500.09;1638416;87;21067;-79
2022/10/15 03:48:49;;;;;;;9.55;5.62;;;;;;;8.01;89.91;99501.38;1635365;87;21091;-78
2022/10/15 03:51:18;;;;;;;14.30;6.75;;;;;;;7.97;89.34;99507.01;1638963;87;21104;-79
2022/10/15 03:53:47;;;;;;;12.78;6.37;;;;;;;7.91;89.94;99505.33;1630776;86;21373;-78
2022/10/15 03:56:15;;;;;;;11.53;6.08;;;;;;;7.88;89.60;99505.80;1636142;87;21401;-79
2022/10/15 03:58:43;;;;;;;13.85;5.85;;;;;;;7.88;90.07;99505.80;1616028;87;21071;-78
2022/10/15 04:01:16;;;;;;;14.35;6.80;;;;;;;7.77;89.86;99505.42;1612609;87;21060;-79
2022/10/15 04:03:45;;;;;;;12.70;6.65;;;;;;;7.74;90.93;99502.02;1631325;87;21533;-79
2022/10/15 04:06:14;;;;;;;14.70;6.90;;;;;;;7.77;91.47;99500.25;1632285;87;21570;-79
2022/10/15 04:08:42;;;;;;;18.25;6.65;;;;;;;7.82;90.88;99507.12;1624531;87;21085;-78
2022/10/15 04:11:17;;;;;;;12.13;6.47;;;;;;;7.83;90.50;99506.27;1640513;86;21035;-80
2022/10/15 04:13:49;;;;;;;14.43;6.83;;;;;;;7.90;89.56;99504.06;1633210;87;21117;-79
2022/10/15 04:16:17;;;;;;;12.28;6.03;;;;;;;7.82;90.04;99510.59;1620746;87;21051;-77
2022/10/15 04:18:45;;;;;;;15.30;7.87;;;;;;;7.81;90.28;99518.36;1633325;87;21099;-79
2022/10/15 04:21:13;;;;;;;16.77;6.78;;;;;;;7.82;90.50;99509.70;1632190;87;21024;-77
2022/10/15 04:23:42;;;;;;;13.18;6.47;;;;;;;7.88;90.69;99505.80;1637043;87;21088;-79
2022/10/15 04:26:20;;;;;;;12.10;6.17;;;;;;;7.90;91.88;99507.95;1636921;87;21000;-79
2022/10/15 04:28:48;;;;;;;14.23;7.30;;;;;;;7.96;91.44;99509.19;1636934;87;21088;-78
2022/10/15 04:31:18;;;;;;;15.38;6.70;;;;;;;8.01;91.15;99503.52;1639338;87;21058;-78
2022/10/15 04:33:48;;;;;;;15.15;7.00;;;;;;;8.05;91.50;99504.36;1638526;87;21111;-79
2022/10/15 04:36:16;;;;;;;16.80;7.20;;;;;;;8.09;91.49;99504.31;1629686;87;21523;-79
2022/10/15 04:38:52;;;;;;;13.43;6.65;;;;;;;8.13;91.29;99507.74;1639414;87;21083;-78
2022/10/15 04:41:22;;;;;;;12.78;6.90;;;;;;;8.19;91.65;99512.02;1634399;85;21051;-79
2022/10/15 04:43:52;;;;;;;15.68;7.33;;;;;;;8.23;91.25;99511.12;1640676;87;21579;-79
2022/10/15 04:46:21;;;;;;;17.05;6.92;;;;;;;8.25;91.00;99510.66;1632673;87;21519;-79
2022/10/15 04:48:51;;;;;;;12.43;6.75;;;;;;;8.27;91.59;99516.24;1640709;87;21115;-79
2022/10/15 04:51:20;;;;;;;14.15;6.80;;;;;;;8.34;91.63;99516.62;1641126;87;21536;-79
2022/10/15 04:54:06;;;;;;;10.82;5.83;;;;;;;8.41;91.16;99515.27;1622965;86;21087;-77
2022/10/15 04:56:36;;;;;;;13.35;6.50;;;;;;;8.44;90.88;99516.14;1614543;88;21519;-79
2022/10/15 04:59:07;;;;;;;13.95;8.13;;;;;;;8.49;90.90;99517.38;1625108;88;21079;-79
2022/10/15 05:01:36;;;;;;;13.88;6.62;;;;;;;8.52;90.72;99514.77;1607060;88;21626;-77
2022/10/15 05:04:08;;;;;;;13.05;6.58;;;;;;;8.51;90.52;99517.77;1607269;88;21554;-79
2022/10/15 05:06:35;;;;;;;16.05;6.20;;;;;;;8.49;89.89;99522.11;1610236;88;21034;-79
2022/10/15 05:09:05;;;;;;;14.23;7.50;;;;;;;8.48;90.01;99520.86;1638239;87;21052;-79
2022/10/15 05:11:39;;;;;;;12.73;6.70;;;;;;;8.46;90.07;99520.02;1622441;88;21095;-78
2022/10/15 05:14:09;;;;;;;18.90;8.35;;;;;;;8.45;90.36;99525.61;1618842;87;21040;-77
2022/10/15 05:16:36;;;;;;;15.00;8.05;;;;;;;8.48;90.99;99525.59;1611226;88;21031;-79
2022/10/15 05:19:06;;;;;;;21.30;8.48;;;;;;;8.51;89.79;99529.88;1636620;88;21031;-79
2022/10/15 05:21:36;;;;;;;15.18;8.05;;;;;;;8.46;90.26;99528.64;1633646;88;21047;-79
2022/10/15 05:24:06;;;;;;;19.42;8.50;;;;;;;8.52;91.37;99534.20;1633839;88;21048;-79
2022/10/15 05:26:41;;;;;;;20.02;9.28;;;;;;;8.51;90.97;99542.39;1632582;87;21063;-79
2022/10/15 05:29:09;;;;;;;30.20;10.98;;;;;;;8.56;91.46;99543.22;1627803;87;21066;-79
2022/10/15 05:31:38;;;;;;;21.50;9.63;;;;;;;8.63;91.22;99549.63;1622264;88;21432;-78
2022/10/15 05:34:11;;;;;;;18.92;9.95;;;;;;;8.67;91.64;99549.58;1629433;88;21563;-79
2022/10/15 05:36:41;;;;;;;14.30;7.78;;;;;;;8.74;91.43;99552.55;1635737;87;21066;-78
2022/10/15 05:39:11;;;;;;;15.28;8.15;;;;;;;8.74;90.95;99555.14;1631496;88;21031;-79
2022/10/15 05:41:40;;;;;;;18.15;8.78;;;;;;;8.68;90.95;99552.61;1626082;87;21563;-79
2022/10/15 05:44:08;;;;;;;20.43;9.53;;;;;;;8.56;90.32;99560.06;1621747;87;21508;-79
2022/10/15 05:46:36;;;;;;;20.15;8.68;;;;;;;8.60;91.89;99555.72;1637159;88;21031;-79
2022/10/15 05:49:04;;;;;;;20.17;8.88;;;;;;;8.69;92.09;99556.05;1626417;88;21083;-78
2022/10/15 05:51:33;;;;;;;23.65;11.03;;;;;;;8.76;91.80;99557.72;1636855;87;21087;-79
2022/10/15 05:54:03;;;;;;;26.27;11.95;;;;;;;8.83;91.93;99563.24;1627916;86;21119;-79
2022/10/15 05:56:31;;;;;;;24.98;11.97;;;;;;;8.90;92.13;99562.77;1635054;88;21527;-80
2022/10/15 05:58:58;;;;;;;23.73;11.63;;;;;;;8.99;92.02;99561.34;1627958;88;21106;-79
2022/10/15 06:01:28;;;;;;;20.82;9.95;;;;;;;9.06;91.56;99569.48;1633119;88;21040;-79
2022/10/15 06:03:55;;;;;;;18.90;8.68;;;;;;;9.03;91.42;99573.43;1614097;88;21062;-79
2022/10/15 06:06:25;;;;;;;20.68;9.35;;;;;;;9.02;90.90;99574.73;1627989;88;21058;-79
2022/10/15 06:08:54;;;;;;;17.92;8.25;;;;;;;9.06;90.94;99579.02;1615453;88;21051;-79
2022/10/15 06:11:21;;;;;;;20.35;9.25;;;;;;;9.11;90.60;99580.68;1623868;88;21087;-78
2022/10/15 06:13:49;;;;;;;14.87;8.28;;;;;;;9.08;90.71;99585.04;1611320;88;21064;-79
2022/10/15 06:16:17;;;;;;;17.77;9.80;;;;;;;9.08;90.54;99587.63;1630114;88;21353;-79
2022/10/15 06:18:45;;;;;;;17.07;8.28;;;;;;;9.08;90.17;99583.30;1632111;88;21035;-79
2022/10/15 06:21:13;;;;;;;16.10;8.30;;;;;;;9.08;90.51;99584.59;1629449;88;21042;-80
2022/10/15 06:23:40;;;;;;;21.80;8.43;;;;;;;9.09;90.79;99587.63;1637548;88;21528;-78
2022/10/15 06:26:09;;;;;;;16.07;7.83;;;;;;;9.10;90.96;99585.44;1629791;87;21027;-78
2022/10/15 06:28:37;;;;;;;18.95;8.68;;;;;;;9.17;90.59;99588.80;1637291;88;21043;-83
2022/10/15 06:31:06;;;;;;;14.63;7.60;;;;;;;9.06;90.57;99599.77;1628470;87;21040;-79
2022/10/15 06:33:36;;;;;;;17.15;8.53;;;;;;;9.04;90.39;99594.58;1634555;88;21487;-79
2022/10/15 06:36:09;;;;;;;15.55;8.00;;;;;;;9.04;90.24;99594.58;1630112;88;21567;-79
2022/10/15 06:38:38;;;;;;;14.00;6.95;;;;;;;9.11;90.96;99591.47;1637403;88;21071;-81
2022/10/15 06:41:07;;;;;;;17.92;8.68;;;;;;;9.14;90.57;99596.64;1631908;88;21018;-79
2022/10/15 06:43:35;;;;;;;16.60;8.55;;;;;;;9.07;90.13;99601.46;1619936;88;21019;-79
2022/10/15 06:46:05;;;;;;;21.15;9.40;;;;;;;9.07;90.00;99602.76;1628958;88;21071;-82
2022/10/15 06:48:33;;;;;;;21.95;9.18;;;;;;;9.05;90.62;99596.73;1635053;88;21023;-79
2022/10/15 06:51:02;;;;;;;20.60;8.78;;;;;;;9.13;90.34;99601.39;1633499;87;21038;-79
2022/10/15 06:53:31;;;;;;;17.02;8.30;;;;;;;9.10;90.97;99604.89;1610913;88;21120;-79
2022/10/15 06:56:02;;;;;;;19.12;7.78;;;;;;;9.15;90.68;99600.94;1627022;88;21040;-79
2022/10/15 06:58:31;;;;;;;20.80;8.55;;;;;;;9.08;90.13;99608.38;1616910;87;21109;-79
2022/10/15 07:01:03;;;;;;;19.20;8.33;;;;;;;9.08;90.87;99605.79;1615668;88;21059;-78
2022/10/15 07:03:31;;;;;;;20.68;9.10;;;;;;;9.12;90.71;99600.98;1606036;88;21058;-78
2022/10/15 07:06:05;;;;;;;18.05;8.23;;;;;;;9.15;90.67;99602.23;1614514;89;21106;-79
2022/10/15 07:08:32;;;;;;;19.12;8.60;;;;;;;9.24;90.57;99596.10;1616113;88;21034;-79
2022/10/15 07:11:08;;;;;;;17.25;8.13;;;;;;;9.31;90.59;99602.50;1591674;89;20992;-79
2022/10/15 07:13:35;;;;;;;17.07;8.40;;;;;;;9.42;90.68;99596.32;1627309;87;21549;-79
2022/10/15 07:16:10;;;;;;;18.95;8.50;;;;;;;9.48;90.64;99593.20;1621949;88;21484;-78
2022/10/15 07:18:38;;;;;;;17.85;8.88;;;;;;;9.56;90.25;99598.30;1634228;88;21055;-79
2022/10/15 07:21:08;;;;;;;20.75;9.13;;;;;;;9.58;90.31;99603.02;1635769;87;21011;-81
2022/10/15 07:23:35;;;;;;;18.07;9.40;;;;;;;9.67;90.35;99596.84;1629581;88;21036;-79
2022/10/15 07:26:03;;;;;;;17.67;8.43;;;;;;;9.74;90.24;99595.45;1637418;88;21082;-79
2022/10/15 07:28:31;;;;;;;18.92;10.48;;;;;;;9.77;89.57;99598.46;1629839;88;21575;-78
2022/10/15 07:31:04;;;;;;;13.88;7.58;;;;;;;9.74;89.91;99595.45;1637468;87;21060;-80
2022/10/15 07:33:33;;;;;;;18.12;8.40;;;;;;;9.84;89.54;99595.33;1632636;88;21149;-78
2022/10/15 07:36:07;;;;;;;18.30;8.28;;;;;;;9.92;89.50;99595.63;1634444;88;20972;-78
2022/10/15 07:38:35;;;;;;;19.50;8.95;;;;;;;10.03;89.38;99586.84;1633294;88;21047;-79
2022/10/15 07:41:04;;;;;;;18.35;8.55;;;;;;;10.09;89.09;99587.59;1636112;88;21035;-81
2022/10/15 07:43:34;;;;;;;16.23;9.05;;;;;;;10.21;88.95;99594.34;1635383;88;21122;-79
2022/10/15 07:46:02;;;;;;;17.73;9.13;;;;;;;10.27;88.30;99587.75;1626202;88;21019;-79
2022/10/15 07:48:31;;;;;;;17.30;8.88;;;;;;;10.32;87.95;99586.40;1636674;88;21036;-78
2022/10/15 07:51:03;;;;;;;20.45;8.88;;;;;;;10.48;88.66;99587.85;1627713;88;21651;-79
2022/10/15 07:53:32;;;;;;;19.47;9.77;;;;;;;10.46;88.41;99581.83;1637609;87;21154;-79
2022/10/15 07:56:03;;;;;;;19.30;9.78;;;;;;;10.48;88.15;99597.41;1633989;86;21088;-78
2022/10/15 07:58:37;;;;;;;22.22;9.15;;;;;;;10.49;87.74;99586.98;1637653;88;21047;-78
2022/10/15 08:01:08;;;;;;;19.27;8.23;;;;;;;10.54;87.61;99594.70;1634586;88;21107;-79
2022/10/15 08:03:37;;;;;;;21.23;10.25;;;;;;;10.55;87.22;99592.53;1619825;88;21040;-80
2022/10/15 08:06:07;;;;;;;21.23;8.83;;;;;;;10.60;87.17;99591.98;1626367;87;21091;-79
2022/10/15 08:08:36;;;;;;;18.32;9.08;;;;;;;10.63;86.75;99585.91;1636876;88;21125;-79
2022/10/15 08:11:14;;;;;;;18.50;8.60;;;;;;;10.67;86.74;99588.41;1630499;88;21036;-79
2022/10/15 08:13:43;;;;;;;16.15;8.45;;;;;;;10.70;86.85;99595.29;1629566;88;21591;-80
2022/10/15 08:16:13;;;;;;;17.32;8.78;;;;;;;10.78;87.29;99589.50;1618218;88;21610;-78
2022/10/15 08:18:42;;;;;;;16.57;7.83;;;;;;;10.81;86.76;99592.52;1635268;88;21047;-79
2022/10/15 08:21:11;;;;;;;20.40;8.60;;;;;;;10.88;87.73;99590.20;1635638;88;20981;-79
2022/10/15 08:23:38;;;;;;;15.13;8.10;;;;;;;11.04;86.36;99594.25;1634307;88;21015;-79
2022/10/15 08:26:06;;;;;;;16.05;7.72;;;;;;;11.03;86.43;99596.42;1636914;87;21555;-78
2022/10/15 08:28:35;;;;;;;14.35;7.55;;;;;;;10.92;86.37;99592.73;1636942;87;21028;-79
2022/10/15 08:31:04;;;;;;;14.20;7.37;;;;;;;11.01;86.48;99595.59;1636227;88;21594;-79
2022/10/15 08:33:33;;;;;;;12.95;7.40;;;;;;;11.06;86.01;99588.58;1632281;88;21074;-79
2022/10/15 08:36:01;;;;;;;17.10;9.10;;;;;;;11.06;86.08;99589.00;1636514;87;21027;-78
2022/10/15 08:38:30;;;;;;;14.58;6.90;;;;;;;11.03;85.57;99591.67;1634604;88;21087;-79
2022/10/15 08:41:00;;;;;;;15.48;7.42;;;;;;;11.04;85.60;99585.56;1637333;88;21087;-79
2022/10/15 08:43:38;;;;;;;17.02;7.75;;;;;;;11.15;86.05;99593.58;1629667;87;21047;-79
2022/10/15 08:46:25;;;;;;;11.30;6.80;;;;;;;11.20;85.74;99593.52;1637283;87;21079;-79
2022/10/15 08:48:57;;;;;;;19.37;7.58;;;;;;;11.35;86.03;99597.54;1630334;88;21587;-79
2022/10/15 08:51:29;;;;;;;16.23;7.80;;;;;;;11.51;86.01;99595.48;1637405;88;20988;-79
2022/10/15 08:54:01;;;;;;;14.00;7.80;;;;;;;11.77;86.10;99596.67;1631319;87;21866;-78
2022/10/15 08:56:35;;;;;;;17.62;8.83;;;;;;;11.94;86.12;99595.44;1634948;88;21043;-78
2022/10/15 08:59:37;;;;;;;18.40;9.03;;;;;;;12.18;85.06;99595.77;1630788;87;21065;-79
2022/10/15 09:02:19;;;;;;;23.77;9.30;;;;;;;12.31;84.35;99597.63;1606400;88;21048;-79
2022/10/15 09:05:21;;;;;;;19.40;9.70;;;;;;;12.43;84.81;99600.38;1614711;88;21079;-79
2022/10/15 09:08:00;;;;;;;16.57;9.43;;;;;;;12.54;83.71;99605.74;1633705;87;21024;-79
2022/10/15 09:10:52;;;;;;;17.55;8.50;;;;;;;12.67;82.19;99596.30;1622681;88;21051;-79
2022/10/15 09:13:27;;;;;;;16.07;8.50;;;;;;;12.66;81.11;99595.91;1632211;88;21077;-79
2022/10/15 09:16:15;;;;;;;15.75;9.05;;;;;;;12.70;81.79;99598.84;1627251;88;21055;-78
2022/10/15 09:18:51;;;;;;;15.32;8.75;;;;;;;12.73;81.56;99594.83;1634671;87;21008;-80
2022/10/15 09:21:22;;;;;;;16.85;8.75;;;;;;;12.75;81.51;99591.73;1637380;88;20992;-78
2022/10/15 09:23:51;;;;;;;16.25;8.55;;;;;;;12.89;81.94;99589.64;1635447;88;21015;-78
2022/10/15 09:26:30;;;;;;;16.55;8.78;;;;;;;12.95;81.75;99597.73;1605633;87;21666;-79
2022/10/15 09:29:15;;;;;;;18.67;10.03;;;;;;;13.05;81.84;99597.91;1635762;88;21526;-79
2022/10/15 09:32:08;;;;;;;15.68;8.60;;;;;;;13.14;81.11;99598.10;1633891;88;21047;-79
2022/10/15 09:34:52;;;;;;;16.42;8.83;;;;;;;13.16;80.40;99594.15;1634260;88;21031;-78
2022/10/15 09:37:56;;;;;;;19.62;8.80;;;;;;;13.26;81.04;99596.91;1630172;88;21051;-79
2022/10/15 09:40:38;;;;;;;19.15;8.80;;;;;;;13.30;79.39;99592.88;1621529;87;21067;-79
2022/10/15 09:43:08;;;;;;;14.38;8.08;;;;;;;13.38;79.25;99595.28;1637290;88;21055;-78
2022/10/15 09:45:36;;;;;;;15.50;8.23;;;;;;;13.26;79.42;99593.84;1631041;87;21581;-79
2022/10/15 09:48:15;;;;;;;14.20;9.18;;;;;;;13.27;79.26;99596.87;1631072;88;21083;-79
2022/10/15 09:51:12;;;;;;;15.23;8.35;;;;;;;13.26;79.26;99589.08;1619169;88;21011;-78
2022/10/15 09:54:20;;;;;;;13.35;7.85;;;;;;;13.30;79.24;99592.03;1622717;88;21115;-79
2022/10/15 09:56:55;;;;;;;21.50;8.43;;;;;;;13.26;78.89;99589.08;1627961;87;21035;-78
2022/10/15 09:59:25;;;;;;;15.98;8.58;;;;;;;13.19;78.80;99587.09;1637146;88;21031;-79
2022/10/15 10:02:02;;;;;;;19.25;9.30;;;;;;;13.13;78.41;99590.73;1635455;87;21584;-78
2022/10/15 10:04:33;;;;;;;15.88;8.25;;;;;;;13.14;78.98;99591.58;1632026;88;21012;-78
2022/10/15 10:07:07;;;;;;;16.57;8.08;;;;;;;13.16;77.96;99590.23;1632314;88;21012;-79
2022/10/15 10:09:52;;;;;;;17.30;8.33;;;;;;;13.21;78.64;99585.72;1614551;87;21027;-78
2022/10/15 10:12:28;;;;;;;15.93;8.48;;;;;;;13.28;78.10;99588.58;1639793;87;21005;-78
2022/10/15 10:15:03;;;;;;;16.65;8.63;;;;;;;13.33;77.65;99590.66;1621010;88;21507;-79
2022/10/15 10:17:31;;;;;;;14.50;7.85;;;;;;;13.40;77.63;99586.95;1607951;88;21059;-78
2022/10/15 10:20:16;;;;;;;19.37;9.85;;;;;;;13.49;78.15;99586.70;1620340;88;21531;-80
2022/10/15 10:22:51;;;;;;;20.32;9.05;;;;;;;13.58;78.64;99584.25;1610723;88;20995;-80
2022/10/15 10:25:36;;;;;;;18.48;9.28;;;;;;;13.73;78.05;99582.95;1613536;88;21710;-78
2022/10/15 10:28:18;;;;;;;15.18;8.33;;;;;;;13.83;77.08;99584.84;1621178;88;21035;-79
2022/10/15 10:31:02;;;;;;;16.17;9.28;;;;;;;13.91;77.67;99577.62;1623964;88;20976;-79
2022/10/15 10:33:51;;;;;;;15.87;8.30;;;;;;;14.05;77.85;99575.41;1616805;88;21119;-80
2022/10/15 10:36:27;;;;;;;17.25;8.68;;;;;;;14.23;77.32;99573.97;1607134;88;21067;-78
2022/10/15 10:39:12;;;;;;;16.65;8.05;;;;;;;14.39;77.48;99575.63;1618078;88;21038;-79
2022/10/15 10:42:08;;;;;;;17.98;9.25;;;;;;;14.46;75.59;99575.84;1610289;88;21007;-79
2022/10/15 10:44:45;;;;;;;17.02;8.73;;;;;;;14.56;75.75;99575.52;1616118;88;21028;-79
2022/10/15 10:47:23;;;;;;;15.08;8.65;;;;;;;14.73;75.04;99582.84;1624935;88;21035;-79
2022/10/15 10:49:56;;;;;;;22.95;8.85;;;;;;;14.90;75.41;99580.47;1617371;88;21083;-79
2022/10/15 10:52:35;;;;;;;12.60;8.28;;;;;;;15.02;74.57;99564.35;1625240;88;21571;-78
2022/10/15 10:55:20;;;;;;;20.30;9.20;;;;;;;15.11;72.65;99564.47;1617099;86;21082;-79
2022/10/15 10:57:54;;;;;;;17.00;8.68;;;;;;;15.25;74.32;99558.73;1624991;88;21050;-79
2022/10/15 11:00:45;;;;;;;15.40;8.68;;;;;;;15.34;72.58;99549.66;1615700;88;20979;-78
2022/10/15 11:03:35;;;;;;;17.92;8.83;;;;;;;15.47;72.67;99554.84;1624980;88;21125;-78
2022/10/15 11:06:40;;;;;;;20.90;7.58;;;;;;;15.56;73.02;99553.63;1624163;88;21095;-80
2022/10/15 11:09:39;;;;;;;16.17;8.20;;;;;;;15.77;72.77;99550.69;1640803;87;21043;-80
2022/10/15 11:12:39;;;;;;;15.50;7.58;;;;;;;15.89;72.33;99554.13;1608191;88;21035;-79
2022/10/15 11:15:21;;;;;;;15.60;8.13;;;;;;;16.09;71.37;99546.77;1621079;88;21051;-80
2022/10/15 11:18:21;;;;;;;15.32;8.13;;;;;;;16.34;71.37;99546.63;1628156;88;21028;-79
2022/10/15 11:21:07;;;;;;;13.58;7.53;;;;;;;16.49;71.33;99539.44;1619376;88;21019;-79
2022/10/15 11:23:52;;;;;;;14.20;7.55;;;;;;;16.70;69.69;99533.70;1619611;88;21035;-78
2022/10/15 11:27:18;;;;;;;13.80;7.72;;;;;;;16.95;68.62;99529.18;1619796;88;21095;-78
2022/10/15 11:30:06;;;;;;;12.13;6.78;;;;;;;17.20;69.53;99532.42;1574516;90;21030;-79
2022/10/15 11:32:50;;;;;;;13.53;7.40;;;;;;;17.45;68.25;99524.74;1610466;89;21100;-78
2022/10/15 11:35:51;;;;;;;10.53;6.75;;;;;;;17.61;67.82;99519.15;1597207;89;21049;-79
2022/10/15 11:38:39;;;;;;;14.80;7.60;;;;;;;17.64;63.55;99528.66;1612852;87;20999;-78
2022/10/15 11:41:21;;;;;;;15.32;7.85;;;;;;;17.66;61.04;99517.14;1623330;88;21651;-79
2022/10/15 11:44:00;;;;;;;13.53;8.05;;;;;;;18.05;64.72;99516.66;1614352;88;21419;-79
2022/10/15 11:46:59;;;;;;;16.15;8.03;;;;;;;18.32;64.54;99503.88;1620221;88;21547;-78
2022/10/15 11:50:06;;;;;;;12.40;8.33;;;;;;;18.64;65.05;99503.58;1609536;89;21074;-81
2022/10/15 11:52:49;;;;;;;12.43;7.33;;;;;;;18.90;60.31;99506.66;1607509;89;21167;-78
2022/10/15 11:55:44;;;;;;;12.20;8.18;;;;;;;19.04;61.94;99499.34;1617348;86;21685;-80
2022/10/15 11:58:17;;;;;;;16.82;8.35;;;;;;;19.10;63.34;99494.18;1629984;87;21006;-79
2022/10/15 12:00:49;;;;;;;13.75;7.95;;;;;;;19.34;63.83;99486.28;1618489;87;21029;-79
2022/10/15 12:03:28;;;;;;;13.53;7.22;;;;;;;19.63;61.32;99482.47;1628696;87;21095;-79
2022/10/15 12:06:04;;;;;;;14.23;7.90;;;;;;;19.80;60.27;99489.00;1612926;87;21076;-82